Site:       
  Group:  
  From:      To:        
   
Sensor Name: Furnace      Latitude:-9.57320000 , Longitude:53.92290000
Please click on the Table Headers to view a Graph of the Observations.
TimeMax. Temp. (°C)Min. Temp. (°C)Mean Temp. (°C)Tot. Rain (mm)Mean Wind (kn)Max Gust (kn)Solar Rad. (J\cm2)Humidity (%)Atmos. Press. (mb)Temp. 5cm (°C)Temp. 10cm (°C)Temp. 20cm (°C)Temp. 30cm (°C)Temp. 50cm (°C)Temp. 100cm (°C)Grass Min. (°C)
18/01/2020 23:00:000.80 0.30 0.60 0.00 3.40 5.30 0.00 94.40 1035.80 2.00 2.00 3.10 4.10 5.50 7.40 -999.00
18/01/2020 22:00:001.00 0.50 0.80 0.00 3.50 5.60 0.00 94.60 1035.20 2.10 2.20 3.20 4.10 5.50 7.40 -999.00
18/01/2020 21:00:001.30 0.60 1.00 0.00 4.90 6.40 0.00 94.40 1034.10 2.30 2.30 3.30 4.20 5.60 7.50 -999.00
18/01/2020 20:00:001.80 1.00 1.40 0.00 4.80 6.10 0.00 93.70 1033.60 2.50 2.50 3.40 4.20 5.60 7.50 -999.00
18/01/2020 19:00:002.40 1.50 2.00 0.00 4.40 5.80 0.00 92.30 1032.90 2.70 2.70 3.40 4.20 5.60 7.50 -999.00
18/01/2020 18:00:004.00 2.40 3.20 0.00 4.60 8.10 0.00 90.30 1032.00 3.00 3.00 3.40 4.20 5.60 7.50 -999.00
18/01/2020 17:00:006.60 4.00 5.30 0.00 1.80 5.00 7.40 79.40 1030.80 3.30 3.20 3.40 4.20 5.70 7.50 -999.00
18/01/2020 16:00:007.40 6.60 7.00 0.00 1.10 2.80 35.80 71.90 1029.90 3.50 3.10 3.20 4.20 5.70 7.50 -999.00
18/01/2020 15:00:007.30 5.30 6.30 0.00 2.00 3.50 56.50 76.80 1028.80 3.20 2.90 3.10 4.20 5.70 7.50 -999.00
18/01/2020 14:00:005.90 4.90 5.40 0.00 3.10 5.40 66.20 78.70 1028.10 2.80 2.40 3.00 4.20 5.80 7.50 -999.00
18/01/2020 13:00:004.90 3.30 4.10 0.00 2.20 5.20 78.20 84.50 1027.80 2.10 1.90 3.00 4.20 5.80 7.50 -999.00
18/01/2020 12:00:003.30 2.00 2.60 0.00 4.90 6.60 54.30 89.60 1027.40 1.70 1.70 3.00 4.30 5.80 7.50 -999.00
18/01/2020 11:00:002.10 0.90 1.50 0.00 3.80 5.40 43.50 91.60 1026.40 1.60 1.80 3.10 4.30 5.90 7.50 -999.00
18/01/2020 10:00:000.90 -0.30 0.30 0.00 2.80 4.90 21.70 94.30 1025.30 1.70 1.90 3.20 4.40 5.90 7.50 -999.00
18/01/2020 09:00:000.60 0.10 0.40 0.00 5.10 7.50 0.70 95.50 1024.00 1.80 2.00 3.30 4.50 5.90 7.50 -999.00
18/01/2020 08:00:000.30 -0.10 0.10 0.00 3.80 6.90 0.00 94.90 1023.30 1.90 2.10 3.40 4.50 6.00 7.50 -999.00
18/01/2020 07:00:000.20 -0.40 -0.10 0.00 3.10 7.70 0.00 94.10 1022.70 2.10 2.20 3.50 4.60 6.00 7.50 -999.00
18/01/2020 06:00:000.60 -0.20 0.20 0.00 4.50 7.80 0.00 95.60 1021.90 2.20 2.30 3.60 4.70 6.00 7.50 -999.00
18/01/2020 05:00:001.00 0.10 0.50 0.00 5.90 7.80 0.00 95.80 1021.10 2.30 2.40 3.70 4.80 6.10 7.50 -999.00
18/01/2020 04:00:001.30 0.50 0.90 0.00 5.60 7.10 0.00 94.70 1020.30 2.50 2.60 3.90 4.90 6.10 7.50 -999.00
18/01/2020 03:00:001.60 0.80 1.20 0.00 4.40 8.20 0.00 94.40 1019.90 2.60 2.80 4.00 5.00 6.10 7.50 -999.00
18/01/2020 02:00:001.80 1.30 1.60 0.00 1.70 5.30 0.00 91.40 1019.70 2.80 2.90 4.10 5.00 6.10 7.50 -999.00
18/01/2020 01:00:003.40 1.50 2.50 0.00 3.10 6.50 0.00 87.60 1019.30 3.00 3.10 4.20 5.10 6.10 7.50 -999.00
18/01/2020 00:00:004.00 3.00 3.50 0.00 5.60 10.90 0.00 81.00 1018.70 3.20 3.30 4.40 5.20 6.20 7.50 -999.00
17/01/2020 23:00:004.30 2.90 3.60 0.00 5.00 11.00 0.00 83.10 1018.20 3.30 3.50 4.50 5.30 6.20 7.50 -999.00
17/01/2020 22:00:004.50 3.30 3.90 0.00 3.70 8.60 0.00 72.50 1017.60 3.60 3.70 4.60 5.30 6.20 7.50 -999.00